sensor_id;sensor_type;location;lat;lon;timestamp;temperature;humidity
29255;DHT22;16277;48.890;2.306;2023-05-29T00:08:22;22.50;79.60
29255;DHT22;16277;48.890;2.306;2023-05-29T00:23:27;22.60;79.00
29255;DHT22;16277;48.890;2.306;2023-05-29T00:38:31;22.10;80.40
29255;DHT22;16277;48.890;2.306;2023-05-29T00:53:36;22.00;80.70
29255;DHT22;16277;48.890;2.306;2023-05-29T01:08:40;22.30;79.70
29255;DHT22;16277;48.890;2.306;2023-05-29T01:24:03;21.90;81.10
29255;DHT22;16277;48.890;2.306;2023-05-29T01:39:10;21.70;81.30
29255;DHT22;16277;48.890;2.306;2023-05-29T01:54:15;21.40;82.20
29255;DHT22;16277;48.890;2.306;2023-05-29T02:09:21;20.60;85.60
29255;DHT22;16277;48.890;2.306;2023-05-29T02:24:25;21.30;83.40
29255;DHT22;16277;48.890;2.306;2023-05-29T02:39:30;20.70;85.50
29255;DHT22;16277;48.890;2.306;2023-05-29T02:54:34;21.00;84.90
29255;DHT22;16277;48.890;2.306;2023-05-29T03:09:39;20.50;87.50
29255;DHT22;16277;48.890;2.306;2023-05-29T03:24:45;20.10;89.10
29255;DHT22;16277;48.890;2.306;2023-05-29T03:39:50;20.20;89.80
29255;DHT22;16277;48.890;2.306;2023-05-29T03:54:54;20.20;89.30
29255;DHT22;16277;48.890;2.306;2023-05-29T04:09:59;19.90;90.60
29255;DHT22;16277;48.890;2.306;2023-05-29T04:25:04;19.70;90.90
29255;DHT22;16277;48.890;2.306;2023-05-29T04:40:09;19.80;90.80
29255;DHT22;16277;48.890;2.306;2023-05-29T04:55:19;19.30;91.70
29255;DHT22;16277;48.890;2.306;2023-05-29T05:10:25;19.70;91.60
29255;DHT22;16277;48.890;2.306;2023-05-29T05:25:30;19.50;91.80
29255;DHT22;16277;48.890;2.306;2023-05-29T05:40:36;19.70;91.70
29255;DHT22;16277;48.890;2.306;2023-05-29T05:55:49;19.70;91.70
29255;DHT22;16277;48.890;2.306;2023-05-29T06:10:55;19.70;91.30
29255;DHT22;16277;48.890;2.306;2023-05-29T06:26:00;20.00;91.30
29255;DHT22;16277;48.890;2.306;2023-05-29T06:41:05;20.20;90.90
29255;DHT22;16277;48.890;2.306;2023-05-29T06:56:11;20.00;91.10
29255;DHT22;16277;48.890;2.306;2023-05-29T07:11:16;19.70;91.70
29255;DHT22;16277;48.890;2.306;2023-05-29T07:26:20;19.90;91.50
29255;DHT22;16277;48.890;2.306;2023-05-29T07:41:26;19.50;92.00
29255;DHT22;16277;48.890;2.306;2023-05-29T07:56:31;19.60;92.10
29255;DHT22;16277;48.890;2.306;2023-05-29T08:11:38;19.80;91.90
29255;DHT22;16277;48.890;2.306;2023-05-29T08:26:42;20.10;91.40
29255;DHT22;16277;48.890;2.306;2023-05-29T08:41:53;20.60;90.90
29255;DHT22;16277;48.890;2.306;2023-05-29T08:57:03;20.50;91.10
29255;DHT22;16277;48.890;2.306;2023-05-29T09:12:07;20.70;91.30
29255;DHT22;16277;48.890;2.306;2023-05-29T09:27:13;20.70;90.80
29255;DHT22;16277;48.890;2.306;2023-05-29T09:42:17;20.50;90.90
29255;DHT22;16277;48.890;2.306;2023-05-29T09:57:23;21.00;90.40
29255;DHT22;16277;48.890;2.306;2023-05-29T10:12:29;21.00;90.80
29255;DHT22;16277;48.890;2.306;2023-05-29T10:27:36;21.20;90.20
29255;DHT22;16277;48.890;2.306;2023-05-29T10:42:45;21.60;90.10
29255;DHT22;16277;48.890;2.306;2023-05-29T10:57:53;21.60;89.20
29255;DHT22;16277;48.890;2.306;2023-05-29T11:12:58;22.00;88.30
29255;DHT22;16277;48.890;2.306;2023-05-29T11:28:04;22.20;88.80
29255;DHT22;16277;48.890;2.306;2023-05-29T11:43:13;22.30;87.80
29255;DHT22;16277;48.890;2.306;2023-05-29T11:58:20;22.80;87.00
29255;DHT22;16277;48.890;2.306;2023-05-29T12:13:25;23.10;84.70
29255;DHT22;16277;48.890;2.306;2023-05-29T12:28:30;23.30;85.50
29255;DHT22;16277;48.890;2.306;2023-05-29T12:43:34;23.50;83.40
29255;DHT22;16277;48.890;2.306;2023-05-29T12:58:39;23.60;83.20
29255;DHT22;16277;48.890;2.306;2023-05-29T13:13:43;24.10;81.40
29255;DHT22;16277;48.890;2.306;2023-05-29T13:28:48;24.40;78.90
29255;DHT22;16277;48.890;2.306;2023-05-29T13:43:52;25.40;75.00
29255;DHT22;16277;48.890;2.306;2023-05-29T13:58:57;28.10;67.30
29255;DHT22;16277;48.890;2.306;2023-05-29T14:14:07;32.00;58.30
29255;DHT22;16277;48.890;2.306;2023-05-29T14:29:12;33.20;55.40
29255;DHT22;16277;48.890;2.306;2023-05-29T14:44:17;34.30;52.00
29255;DHT22;16277;48.890;2.306;2023-05-29T14:59:22;35.40;50.00
29255;DHT22;16277;48.890;2.306;2023-05-29T15:14:26;36.10;49.20
29255;DHT22;16277;48.890;2.306;2023-05-29T15:29:32;36.70;47.50
29255;DHT22;16277;48.890;2.306;2023-05-29T15:44:37;37.10;47.10
29255;DHT22;16277;48.890;2.306;2023-05-29T15:59:42;37.10;46.30
29255;DHT22;16277;48.890;2.306;2023-05-29T16:14:46;36.60;46.90
29255;DHT22;16277;48.890;2.306;2023-05-29T16:29:51;35.40;48.50
29255;DHT22;16277;48.890;2.306;2023-05-29T16:44:55;34.40;49.50
29255;DHT22;16277;48.890;2.306;2023-05-29T17:00:00;34.00;50.90
29255;DHT22;16277;48.890;2.306;2023-05-29T17:15:05;33.10;50.80
29255;DHT22;16277;48.890;2.306;2023-05-29T17:30:11;32.00;53.10
29255;DHT22;16277;48.890;2.306;2023-05-29T17:45:16;30.70;55.60
29255;DHT22;16277;48.890;2.306;2023-05-29T18:00:21;30.20;57.20
29255;DHT22;16277;48.890;2.306;2023-05-29T18:15:25;29.50;57.40
29255;DHT22;16277;48.890;2.306;2023-05-29T18:30:30;28.80;58.60
29255;DHT22;16277;48.890;2.306;2023-05-29T18:45:35;27.90;59.50
29255;DHT22;16277;48.890;2.306;2023-05-29T19:00:41;26.90;61.10
29255;DHT22;16277;48.890;2.306;2023-05-29T19:15:45;26.20;63.10
29255;DHT22;16277;48.890;2.306;2023-05-29T19:30:50;25.90;63.00
29255;DHT22;16277;48.890;2.306;2023-05-29T19:45:54;25.40;62.90
29255;DHT22;16277;48.890;2.306;2023-05-29T20:01:08;25.00;64.40
29255;DHT22;16277;48.890;2.306;2023-05-29T20:16:12;24.60;66.30
29255;DHT22;16277;48.890;2.306;2023-05-29T20:31:17;24.40;64.60
29255;DHT22;16277;48.890;2.306;2023-05-29T20:46:21;24.20;65.10
29255;DHT22;16277;48.890;2.306;2023-05-29T21:01:26;23.80;66.70
29255;DHT22;16277;48.890;2.306;2023-05-29T21:16:31;23.60;67.50
29255;DHT22;16277;48.890;2.306;2023-05-29T21:31:36;23.40;67.30
29255;DHT22;16277;48.890;2.306;2023-05-29T21:46:43;22.70;69.30
29255;DHT22;16277;48.890;2.306;2023-05-29T22:01:49;23.10;67.90
29255;DHT22;16277;48.890;2.306;2023-05-29T22:16:54;22.90;67.40
29255;DHT22;16277;48.890;2.306;2023-05-29T22:31:58;22.70;66.00
29255;DHT22;16277;48.890;2.306;2023-05-29T22:47:03;22.30;66.40
29255;DHT22;16277;48.890;2.306;2023-05-29T23:02:09;22.20;67.20
29255;DHT22;16277;48.890;2.306;2023-05-29T23:17:13;21.90;65.80
29255;DHT22;16277;48.890;2.306;2023-05-29T23:32:18;21.10;67.50
29255;DHT22;16277;48.890;2.306;2023-05-29T23:47:22;21.00;67.40
